• Join FlightAware (Why Join?)
  • Login
  • US Flag 
11:06PM EST


 

Airport Tracker/Info


-or-


 

Live Flight TrackerFlight Track Log ✈ N1250V ✈ 08-Aug-2013 ✈ KCKV - KLUK

Flight Track Log - Related Links

Times and Time Zones

All times are in EDT time to prevent confusion due to time zone crossing. See the N1250V flight status page for this flight to view local times or setup timezone preferences in your user account.

Time Position Orientation Groundspeed Altitude Reporting Facility
EDT Latitude Longitude Course Direction KTS MPH feet Rate Location/Type
03:36PM 36.6303 -87.4197 45° Northeast 139 160 1,100  Level Memphis Center
03:37PM 36.6686 -87.3717 45° Northeast 199 229 3,400 2,160 Climbing Memphis Center
03:39PM 36.7147 -87.2922 54° Northeast 215 247 6,500 2,340 Climbing Memphis Center
03:40PM 36.7508 -87.2314 53° Northeast 215 247 9,000 2,160 Climbing Memphis Center
03:41PM 36.7867 -87.1678 55° Northeast 215 247 10,900 1,800 Climbing Memphis Center
03:42PM 36.8264 -87.0964 55° Northeast 240 276 12,700 1,740 Climbing Memphis Center
03:43PM 36.8644 -87.0325 53° Northeast 249 287 14,400 1,800 Climbing Memphis Center
03:44PM 36.9061 -86.9581 55° Northeast 249 287 16,300 1,620 Climbing Memphis Center
03:45PM 36.9519 -86.8836 52° Northeast 259 298 17,700 1,200 Climbing Memphis Center
03:46PM 36.9975 -86.8011 55° Northeast 278 320 18,800 600 Climbing Memphis Center
03:47PM 37.0469 -86.7103 56° Northeast 306 352 19,000 60 Climbing Memphis Center
03:49PM 37.1836 -86.4733 54° Northeast 358 412 19,000  Level Indianapolis Center
03:50PM 37.2433 -86.3669 55° Northeast 365 420 19,000 240 Level Indianapolis Center
03:51PM 37.3017 -86.2639 55° Northeast 360 414 19,600 960 Climbing Indianapolis Center
03:52PM 37.3567 -86.1667 55° Northeast 341 392 21,000 660 Climbing Indianapolis Center
03:53PM 37.4117 -86.0681 55° Northeast 339 390 21,000  Level Indianapolis Center
03:54PM 37.4694 -85.9644 55° Northeast 354 407 21,000  Level Indianapolis Center
03:55PM 37.5333 -85.8547 54° Northeast 361 415 21,000  Level Indianapolis Center
03:56PM 37.6222 -85.7928 29° Northeast 363 418 21,000  Level Indianapolis Center
03:57PM 37.7153 -85.7492 20° North 358 412 21,000 -60 Level Indianapolis Center
03:58PM 37.8083 -85.7072 20° North 360 414 20,900  Descending Indianapolis Center
03:59PM 37.9033 -85.6653 19° North 361 415 21,000  Climbing Indianapolis Center
04:00PM 37.9889 -85.5975 32° Northeast 372 428 21,000 -780 Level Indianapolis Center
04:01PM 38.0839 -85.4997 39° Northeast 368 423 19,500 -1,800 Descending Indianapolis Center
04:03PM 38.1611 -85.4194 39° Northeast 362 417 17,300 -2,100 Descending Indianapolis Center
04:04PM 38.2322 -85.3447 40° Northeast 341 392 15,200 -1,980 Descending Indianapolis Center
04:05PM 38.3019 -85.2719 39° Northeast 327 376 13,300 -1,740 Descending Indianapolis Center
04:06PM 38.3681 -85.2022 40° Northeast 313 360 11,700 -1,140 Descending Indianapolis Center
04:07PM 38.4328 -85.1350 39° Northeast 302 348 11,000 -360 Descending Indianapolis Center
04:08PM 38.5064 -85.0550 40° Northeast 298 343 11,000  Level Indianapolis Center
04:09PM 38.5711 -84.9878 39° Northeast 299 344 11,000 -360 Level Indianapolis Center
04:10PM 38.6225 -84.8989 53° Northeast 309 356 10,300 -900 Descending Indianapolis Center
04:11PM 38.6517 -84.8108 67° East 292 336 9,200 -1,080 Descending Indianapolis Center
04:12PM 38.6872 -84.7283 61° Northeast 271 312 8,100 -1,500 Descending Indianapolis Center
04:13PM 38.7244 -84.6464 60° Northeast 268 308 6,200 -1,980 Descending Indianapolis Center
04:14PM 38.7703 -84.5669 53° Northeast 267 307 4,100 -1,080 Descending Indianapolis Center
04:15PM 38.8247 -84.5275 29° Northeast 254 292 4,000 -60 Descending Indianapolis Center
04:16PM 38.9000 -84.4500 39° Northeast 205 236 4,000  Level Cincinnati TRACON
04:18PM 38.9667 -84.3833 38° Northeast 226 260 4,000  Level Cincinnati TRACON
04:19PM 39.0167 -84.3500 27° Northeast 196 226 4,000 -180 Level Cincinnati TRACON
04:20PM 39.0500 -84.3333 21° North 189 217 3,700 -600 Descending Cincinnati TRACON
04:21PM 39.1000 -84.3167 15° North 155 178 3,000 -780 Descending Cincinnati TRACON
04:22PM 39.1333 -84.3500 322° Northwest 141 162 2,100 -1,020 Descending Cincinnati TRACON
04:23PM 39.1333 -84.4000 270° West 123 142 1,000 -1,140 Descending Cincinnati TRACON